createdAt,value
2022-11-27T00:01:31.153Z,11.23
2022-11-27T00:03:59.109Z,10.70
2022-11-27T00:06:30.352Z,12.15
2022-11-27T00:08:59.171Z,11.80
2022-11-27T00:11:28.811Z,12.07
2022-11-27T00:13:57.274Z,10.45
2022-11-27T00:16:26.942Z,12.07
2022-11-27T00:18:55.392Z,12.27
2022-11-27T00:21:25.431Z,10.50
2022-11-27T00:23:56.187Z,12.27
2022-11-27T00:26:24.613Z,11.48
2022-11-27T00:28:52.936Z,11.23
2022-11-27T00:31:23.731Z,10.85
2022-11-27T00:33:51.694Z,11.52
2022-11-27T00:36:19.581Z,11.50
2022-11-27T00:38:47.483Z,11.85
2022-11-27T00:41:20.950Z,12.88
2022-11-27T00:43:49.468Z,11.70
2022-11-27T00:46:18.051Z,14.13
2022-11-27T00:48:46.791Z,13.23
2022-11-27T00:51:18.583Z,12.32
2022-11-27T00:53:47.013Z,11.93
2022-11-27T00:56:18.380Z,12.88
2022-11-27T00:58:46.351Z,13.73
2022-11-27T01:01:19.409Z,12.32
2022-11-27T01:03:47.942Z,12.18
2022-11-27T01:06:16.479Z,11.13
2022-11-27T01:08:44.670Z,11.55
2022-11-27T01:11:16.582Z,10.93
2022-11-27T01:13:46.690Z,12.48
2022-11-27T01:16:18.289Z,11.85
2022-11-27T01:18:48.073Z,10.73
2022-11-27T01:21:19.152Z,11.73
2022-11-27T01:23:47.332Z,12.23
2022-11-27T01:26:15.684Z,10.93
2022-11-27T01:28:45.255Z,12.30
2022-11-27T01:31:16.629Z,10.43
2022-11-27T01:33:45.268Z,12.73
2022-11-27T01:36:15.253Z,12.10
2022-11-27T01:38:43.523Z,11.18
2022-11-27T01:41:16.033Z,11.25
2022-11-27T01:43:47.465Z,11.00
2022-11-27T01:46:30.246Z,12.05
2022-11-27T01:49:04.892Z,10.98
2022-11-27T01:51:33.150Z,12.35
2022-11-27T01:54:01.118Z,11.13
2022-11-27T01:56:30.092Z,11.27
2022-11-27T01:59:00.940Z,10.98
2022-11-27T02:01:29.056Z,10.93
2022-11-27T02:04:00.879Z,10.80
2022-11-27T02:06:29.479Z,9.95
2022-11-27T02:08:57.830Z,10.32
2022-11-27T02:11:33.056Z,10.38
2022-11-27T02:14:17.411Z,9.95
2022-11-27T02:16:52.412Z,9.45
2022-11-27T02:19:33.788Z,9.40
2022-11-27T02:22:06.316Z,9.07
2022-11-27T02:24:49.940Z,9.50
2022-11-27T02:27:38.353Z,9.70
2022-11-27T02:30:08.997Z,10.25
2022-11-27T02:32:40.518Z,8.60
2022-11-27T02:35:13.842Z,8.43
2022-11-27T02:37:47.907Z,9.73
2022-11-27T02:40:21.218Z,9.50
2022-11-27T02:42:53.148Z,10.23
2022-11-27T02:45:27.276Z,9.95
2022-11-27T02:47:57.691Z,9.52
2022-11-27T02:50:29.203Z,9.68
2022-11-27T02:53:00.642Z,9.30
2022-11-27T02:55:34.194Z,9.25
2022-11-27T02:58:04.784Z,9.90
2022-11-27T03:00:35.759Z,9.18
2022-11-27T03:03:08.223Z,9.05
2022-11-27T03:05:41.252Z,7.80
2022-11-27T03:08:16.731Z,8.07
2022-11-27T03:10:51.281Z,9.52
2022-11-27T03:13:19.628Z,9.40
2022-11-27T03:15:58.557Z,8.63
2022-11-27T03:18:38.176Z,8.38
2022-11-27T03:21:15.070Z,8.75
2022-11-27T03:23:43.011Z,8.48
2022-11-27T03:26:10.895Z,7.90
2022-11-27T03:28:39.285Z,8.65
2022-11-27T03:31:08.645Z,8.90
2022-11-27T03:33:36.640Z,9.52
2022-11-27T03:36:12.993Z,9.30
2022-11-27T03:38:41.076Z,8.68
2022-11-27T03:41:17.908Z,9.98
2022-11-27T03:43:57.393Z,8.85
2022-11-27T03:46:34.663Z,9.10
2022-11-27T03:49:12.183Z,9.30
2022-11-27T03:51:48.222Z,9.35
2022-11-27T03:54:26.122Z,9.50
2022-11-27T03:59:28.306Z,7.75
2022-11-27T04:01:57.793Z,8.20
2022-11-27T04:04:25.789Z,8.27
2022-11-27T04:06:53.728Z,9.52
2022-11-27T04:09:21.682Z,9.40
2022-11-27T04:11:49.614Z,8.98
2022-11-27T04:14:17.546Z,8.63
2022-11-27T04:16:45.457Z,8.75
2022-11-27T04:19:14.721Z,9.18
2022-11-27T04:21:42.657Z,8.35
2022-11-27T04:24:10.711Z,9.70
2022-11-27T04:26:38.607Z,9.93
2022-11-27T04:29:06.495Z,8.88
2022-11-27T04:31:34.782Z,9.90
2022-11-27T04:34:02.734Z,9.18
2022-11-27T04:36:37.599Z,8.55
2022-11-27T04:39:07.064Z,9.70
2022-11-27T04:41:35.235Z,9.45
2022-11-27T04:44:03.180Z,8.32
2022-11-27T04:46:31.182Z,8.73
2022-11-27T04:48:59.133Z,8.98
2022-11-27T04:51:27.064Z,9.25
2022-11-27T04:53:56.448Z,9.30
2022-11-27T04:56:24.814Z,8.68
2022-11-27T04:58:52.759Z,11.30
2022-11-27T05:01:21.141Z,9.20
2022-11-27T05:03:49.112Z,9.15
2022-11-27T05:06:17.235Z,9.43
2022-11-27T05:08:45.144Z,9.52
2022-11-27T05:11:16.587Z,9.07
2022-11-27T05:13:44.708Z,9.00
2022-11-27T05:16:12.631Z,10.20
2022-11-27T05:18:40.576Z,9.05
2022-11-27T05:21:09.648Z,9.40
2022-11-27T05:23:37.589Z,10.38
2022-11-27T05:26:05.650Z,9.70
2022-11-27T05:28:34.907Z,9.65
2022-11-27T05:31:02.852Z,8.48
2022-11-27T05:33:30.697Z,8.55
2022-11-27T05:35:58.604Z,8.65
2022-11-27T05:38:26.570Z,8.90
2022-11-27T05:40:54.520Z,8.48
2022-11-27T05:43:22.440Z,9.50
2022-11-27T05:45:51.726Z,9.50
2022-11-27T05:48:19.608Z,9.02
2022-11-27T05:50:47.778Z,9.70
2022-11-27T05:53:15.674Z,10.30
2022-11-27T05:55:43.575Z,8.93
2022-11-27T05:58:11.462Z,9.45
2022-11-27T06:00:39.439Z,9.63
2022-11-27T06:03:08.762Z,8.85
2022-11-27T06:05:39.829Z,8.85
2022-11-27T06:08:07.865Z,10.43
2022-11-27T06:10:35.824Z,8.52
2022-11-27T06:13:03.845Z,8.60
2022-11-27T06:15:31.790Z,7.63
2022-11-27T06:17:59.747Z,8.75
2022-11-27T06:20:29.128Z,7.85
2022-11-27T06:22:57.558Z,7.78
2022-11-27T06:25:26.280Z,6.65
2022-11-27T06:27:54.473Z,6.88
2022-11-27T06:30:26.006Z,6.72
2022-11-27T06:32:54.901Z,6.00
2022-11-27T06:35:24.336Z,6.47
2022-11-27T06:37:55.461Z,9.02
2022-11-27T06:40:24.635Z,8.23
2022-11-27T06:42:53.239Z,7.78
2022-11-27T06:45:21.325Z,7.25
2022-11-27T06:47:49.298Z,6.30
2022-11-27T06:50:17.439Z,6.95
2022-11-27T06:52:45.384Z,7.45
2022-11-27T06:55:14.724Z,5.93
2022-11-27T06:57:42.748Z,6.25
2022-11-27T07:00:11.481Z,6.70
2022-11-27T07:02:39.465Z,5.97
2022-11-27T07:05:07.707Z,5.60
2022-11-27T07:07:39.698Z,6.18
2022-11-27T07:10:10.878Z,6.03
2022-11-27T07:12:40.196Z,6.05
2022-11-27T07:15:17.935Z,6.15
2022-11-27T07:17:54.230Z,7.88
2022-11-27T07:20:40.791Z,6.28
2022-11-27T07:23:15.122Z,5.53
2022-11-27T07:25:47.046Z,5.68
2022-11-27T07:28:24.827Z,8.75
2022-11-27T07:30:55.871Z,6.43
2022-11-27T07:33:24.093Z,7.40
2022-11-27T07:35:58.304Z,5.47
2022-11-27T07:38:26.341Z,5.90
2022-11-27T07:40:54.342Z,5.82
2022-11-27T07:43:23.601Z,5.35
2022-11-27T07:45:51.539Z,4.95
2022-11-27T07:48:19.479Z,5.57
2022-11-27T07:50:47.353Z,5.30
2022-11-27T07:53:15.245Z,5.15
2022-11-27T07:55:43.763Z,5.35
2022-11-27T07:58:11.665Z,6.53
2022-11-27T08:00:41.267Z,5.57
2022-11-27T08:03:10.366Z,3.95
2022-11-27T08:05:38.863Z,4.95
2022-11-27T08:08:06.949Z,4.25
2022-11-27T08:10:36.906Z,5.78
2022-11-27T08:13:05.106Z,5.60
2022-11-27T08:15:33.164Z,4.95
2022-11-27T08:18:02.451Z,5.55
2022-11-27T08:20:30.661Z,5.03
2022-11-27T08:23:02.699Z,6.03
2022-11-27T08:25:31.100Z,6.30
2022-11-27T08:27:59.073Z,5.32
2022-11-27T08:30:26.951Z,5.25
2022-11-27T08:32:54.866Z,5.57
2022-11-27T08:35:24.154Z,5.35
2022-11-27T08:37:52.145Z,5.30
2022-11-27T08:40:20.125Z,4.20
2022-11-27T08:42:48.077Z,4.50
2022-11-27T08:45:16.154Z,5.05
2022-11-27T08:47:44.407Z,5.55
2022-11-27T08:50:12.381Z,4.90
2022-11-27T08:52:41.635Z,5.00
2022-11-27T08:55:10.220Z,5.03
2022-11-27T08:57:38.208Z,5.15
2022-11-27T09:00:08.174Z,5.95
2022-11-27T09:02:36.361Z,5.40
2022-11-27T09:05:06.493Z,5.07
2022-11-27T09:07:34.519Z,4.50
2022-11-27T09:10:03.858Z,5.10
2022-11-27T09:12:31.846Z,4.72
2022-11-27T09:14:59.703Z,4.75
2022-11-27T09:17:27.576Z,4.20
2022-11-27T09:19:55.464Z,4.40
2022-11-27T09:22:23.753Z,4.95
2022-11-27T09:24:51.742Z,3.95
2022-11-27T09:27:21.019Z,4.70
2022-11-27T09:29:49.593Z,4.22
2022-11-27T09:32:18.071Z,4.15
2022-11-27T09:34:46.029Z,4.70
2022-11-27T09:37:14.076Z,4.72
2022-11-27T09:39:41.958Z,5.07
2022-11-27T09:42:18.588Z,3.88
2022-11-27T09:44:55.735Z,3.80
2022-11-27T09:47:32.209Z,3.95
2022-11-27T09:50:04.085Z,3.60
2022-11-27T09:52:39.571Z,4.45
2022-11-27T09:55:17.665Z,5.78
2022-11-27T09:57:55.874Z,4.22
2022-11-27T10:00:25.398Z,4.45
2022-11-27T10:02:54.013Z,4.22
2022-11-27T10:05:24.728Z,3.67
2022-11-27T10:08:06.878Z,4.65
2022-11-27T10:10:46.656Z,4.65
2022-11-27T10:13:28.995Z,3.53
2022-11-27T10:16:04.887Z,3.83
2022-11-27T10:18:39.756Z,4.15
2022-11-27T10:21:14.136Z,3.60
2022-11-27T10:23:47.335Z,4.05
2022-11-27T10:26:19.928Z,3.65
2022-11-27T10:28:56.498Z,3.67
2022-11-27T10:31:37.369Z,3.63
2022-11-27T10:34:08.623Z,3.60
2022-11-27T10:36:43.222Z,2.80
2022-11-27T10:39:16.765Z,2.72
2022-11-27T10:41:52.978Z,2.95
2022-11-27T10:44:29.156Z,2.90
2022-11-27T10:47:02.716Z,3.13
2022-11-27T10:49:30.855Z,3.20
2022-11-27T10:51:58.742Z,2.85
2022-11-27T10:54:29.433Z,3.72
2022-11-27T10:57:19.139Z,2.60
2022-11-27T10:59:52.305Z,2.67
2022-11-27T11:02:31.419Z,2.10
2022-11-27T11:05:30.714Z,2.50
2022-11-27T11:07:57.608Z,2.90
2022-11-27T11:10:30.053Z,2.50
2022-11-27T11:13:18.481Z,2.42
2022-11-27T11:15:53.730Z,2.22
2022-11-27T11:18:25.108Z,2.58
2022-11-27T11:20:55.596Z,1.90
2022-11-27T11:23:28.827Z,2.13
2022-11-27T11:26:00.815Z,1.90
2022-11-27T11:28:29.704Z,2.28
2022-11-27T11:31:02.515Z,2.10
2022-11-27T11:33:32.360Z,2.13
2022-11-27T11:36:09.509Z,2.38
2022-11-27T11:38:38.364Z,2.30
2022-11-27T11:41:09.494Z,1.92
2022-11-27T11:43:38.475Z,2.05
2022-11-27T11:46:18.814Z,2.55
2022-11-27T11:49:05.117Z,3.13
2022-11-27T11:52:09.247Z,2.58
2022-11-27T11:54:51.380Z,3.20
2022-11-27T11:57:52.486Z,3.60
2022-11-27T12:00:28.219Z,2.95
2022-11-27T12:03:25.395Z,3.10
2022-11-27T12:06:14.864Z,2.70
2022-11-27T12:08:56.169Z,2.97
2022-11-27T12:11:32.811Z,2.83
2022-11-27T12:14:14.163Z,2.55
2022-11-27T12:16:56.111Z,2.50
2022-11-27T12:19:55.724Z,2.72
2022-11-27T12:22:42.725Z,2.28
2022-11-27T12:25:23.205Z,2.72
2022-11-27T12:28:07.274Z,2.22
2022-11-27T12:30:44.274Z,2.60
2022-11-27T12:33:27.043Z,2.55
2022-11-27T12:36:03.429Z,2.42
2022-11-27T12:38:48.869Z,3.08
2022-11-27T12:41:33.475Z,2.42
2022-11-27T12:44:01.501Z,2.78
2022-11-27T12:46:37.835Z,2.47
2022-11-27T12:49:14.566Z,2.40
2022-11-27T12:51:49.211Z,2.40
2022-11-27T12:54:23.660Z,2.42
2022-11-27T12:56:57.727Z,2.30
2022-11-27T12:59:31.432Z,2.05
2022-11-27T13:02:06.733Z,2.60
2022-11-27T13:04:43.321Z,2.85
2022-11-27T13:07:15.052Z,2.55
2022-11-27T13:09:51.326Z,2.30
2022-11-27T13:12:35.729Z,2.80
2022-11-27T13:15:15.361Z,2.80
2022-11-27T13:17:46.329Z,2.60
2022-11-27T13:20:18.965Z,2.63
2022-11-27T13:22:47.738Z,2.28
2022-11-27T13:25:17.271Z,2.90
2022-11-27T13:27:49.874Z,2.28
2022-11-27T13:30:22.314Z,2.30
2022-11-27T13:32:53.251Z,2.83
2022-11-27T13:35:27.307Z,2.20
2022-11-27T13:38:04.481Z,2.47
2022-11-27T13:40:40.110Z,2.60
2022-11-27T13:43:21.512Z,2.60
2022-11-27T13:45:49.828Z,2.72
2022-11-27T13:48:29.265Z,2.50
2022-11-27T13:50:59.086Z,2.50
2022-11-27T13:53:35.883Z,2.80
2022-11-27T13:56:06.909Z,3.00
2022-11-27T13:58:37.536Z,2.28
2022-11-27T14:01:17.125Z,4.03
2022-11-27T14:03:45.671Z,2.60
2022-11-27T14:06:19.620Z,2.78
2022-11-27T14:08:53.605Z,2.83
2022-11-27T14:11:37.209Z,3.15
2022-11-27T14:14:15.916Z,2.65
2022-11-27T14:16:43.909Z,2.83
2022-11-27T14:19:33.530Z,3.40
2022-11-27T14:22:02.072Z,3.72
2022-11-27T14:24:41.000Z,3.70
2022-11-27T14:27:17.689Z,3.25
2022-11-27T14:29:46.059Z,3.78
2022-11-27T14:32:16.355Z,3.38
2022-11-27T14:34:44.848Z,4.07
2022-11-27T14:37:23.431Z,4.22
2022-11-27T14:39:51.466Z,4.40
2022-11-27T14:42:28.471Z,3.97
2022-11-27T14:45:04.091Z,4.07
2022-11-27T14:47:32.856Z,3.15
2022-11-27T14:50:01.345Z,4.07
2022-11-27T14:52:29.868Z,3.75
2022-11-27T14:54:59.448Z,3.53
2022-11-27T14:57:31.160Z,4.03
2022-11-27T15:00:16.362Z,4.10
2022-11-27T15:02:46.130Z,4.32
2022-11-27T15:05:29.004Z,4.53
2022-11-27T15:08:00.769Z,5.25
2022-11-27T15:10:37.804Z,5.35
2022-11-27T15:13:24.106Z,5.07
2022-11-27T15:16:02.774Z,4.93
2022-11-27T15:18:45.227Z,5.38
2022-11-27T15:21:26.817Z,5.70
2022-11-27T15:23:57.755Z,5.95
2022-11-27T15:26:43.034Z,6.65
2022-11-27T15:29:36.241Z,5.97
2022-11-27T15:32:04.958Z,6.22
2022-11-27T15:34:34.884Z,5.32
2022-11-27T15:37:06.456Z,5.45
2022-11-27T15:39:39.338Z,5.95
2022-11-27T15:42:10.950Z,6.40
2022-11-27T15:44:40.667Z,6.53
2022-11-27T15:47:22.338Z,6.47
2022-11-27T15:49:50.234Z,5.88
2022-11-27T15:52:18.344Z,6.07
2022-11-27T15:54:46.341Z,5.95
2022-11-27T15:57:14.843Z,6.57
2022-11-27T15:59:44.168Z,6.75
2022-11-27T16:02:17.471Z,6.95
2022-11-27T16:05:04.584Z,5.35
2022-11-27T16:07:38.233Z,7.22
2022-11-27T16:10:09.155Z,6.18
2022-11-27T16:12:43.779Z,6.88
2022-11-27T16:15:24.968Z,7.25
2022-11-27T16:17:56.692Z,6.80
2022-11-27T16:20:34.639Z,7.45
2022-11-27T16:23:09.929Z,7.00
2022-11-27T16:25:52.636Z,8.18
2022-11-27T16:28:21.327Z,7.88
2022-11-27T16:30:53.817Z,7.55
2022-11-27T16:33:28.728Z,8.77
2022-11-27T16:35:59.299Z,8.38
2022-11-27T16:38:30.189Z,7.68
2022-11-27T16:41:04.819Z,8.25
2022-11-27T16:43:37.677Z,8.80
2022-11-27T16:46:11.253Z,8.95
2022-11-27T16:48:42.142Z,8.25
2022-11-27T16:51:22.911Z,8.77
2022-11-27T16:54:06.966Z,8.60
2022-11-27T16:56:39.124Z,8.55
2022-11-27T16:59:13.743Z,8.55
2022-11-27T17:01:44.229Z,9.52
2022-11-27T17:04:18.373Z,7.70
2022-11-27T17:06:48.028Z,9.15
2022-11-27T17:09:16.717Z,9.40
2022-11-27T17:11:48.496Z,9.02
2022-11-27T17:14:18.449Z,9.18
2022-11-27T17:16:48.243Z,9.38
2022-11-27T17:19:18.294Z,8.60
2022-11-27T17:21:47.036Z,9.50
2022-11-27T17:24:16.683Z,9.70
2022-11-27T17:26:46.540Z,10.20
2022-11-27T17:29:17.260Z,9.13
2022-11-27T17:31:46.899Z,9.70
2022-11-27T17:34:16.183Z,11.00
2022-11-27T17:36:45.061Z,9.77
2022-11-27T17:39:14.326Z,10.18
2022-11-27T17:41:44.490Z,10.23
2022-11-27T17:44:12.939Z,10.82
2022-11-27T17:46:40.932Z,10.32
2022-11-27T17:49:11.572Z,9.70
2022-11-27T17:51:41.201Z,11.02
2022-11-27T17:54:09.111Z,9.88
2022-11-27T17:56:37.066Z,10.02
2022-11-27T17:59:05.017Z,11.25
2022-11-27T18:01:34.573Z,11.05
2022-11-27T18:04:04.108Z,11.55
2022-11-27T18:06:35.849Z,11.23
2022-11-27T18:09:04.331Z,12.82
2022-11-27T18:11:34.178Z,11.38
2022-11-27T18:14:02.825Z,11.25
2022-11-27T18:16:33.397Z,11.52
2022-11-27T18:19:04.335Z,10.43
2022-11-27T18:21:33.821Z,11.35
2022-11-27T18:29:40.155Z,11.17
2022-11-27T18:32:08.798Z,10.57
2022-11-27T18:34:36.862Z,11.43
2022-11-27T18:37:06.643Z,11.15
2022-11-27T18:39:35.182Z,12.32
2022-11-27T18:42:04.866Z,11.45
2022-11-27T18:44:34.693Z,11.55
2022-11-27T18:47:09.804Z,11.05
2022-11-27T18:49:37.945Z,11.18
2022-11-27T18:52:08.277Z,11.52
2022-11-27T18:54:37.122Z,11.02
2022-11-27T18:57:07.013Z,10.50
2022-11-27T18:59:35.067Z,11.27
2022-11-27T19:02:03.906Z,11.77
2022-11-27T19:04:32.035Z,11.18
2022-11-27T19:07:00.045Z,10.68
2022-11-27T19:09:29.500Z,10.57
2022-11-27T19:11:57.464Z,11.05
2022-11-27T19:14:26.437Z,10.70
2022-11-27T19:16:55.461Z,11.30
2022-11-27T19:19:54.007Z,10.93
2022-11-27T19:22:17.594Z,10.88
2022-11-27T19:24:51.506Z,10.75
2022-11-27T19:27:38.647Z,10.60
2022-11-27T19:30:10.256Z,10.18
2022-11-27T19:33:12.370Z,11.18
2022-11-27T19:35:48.583Z,9.98
2022-11-27T19:38:18.301Z,10.05
2022-11-27T19:40:48.487Z,10.38
2022-11-27T19:43:26.521Z,10.10
2022-11-27T19:45:59.347Z,10.07
2022-11-27T19:48:28.955Z,9.20
2022-11-27T19:51:03.315Z,10.02
2022-11-27T19:53:33.542Z,10.85
2022-11-27T19:56:03.617Z,10.48
2022-11-27T19:58:32.899Z,10.60
2022-11-27T20:01:07.928Z,10.50
2022-11-27T20:03:40.970Z,11.52
2022-11-27T20:06:11.960Z,10.98
2022-11-27T20:08:41.718Z,11.23
2022-11-27T20:11:17.285Z,10.38
2022-11-27T20:13:46.791Z,12.10
2022-11-27T20:16:18.259Z,11.55
2022-11-27T20:18:57.271Z,11.30
2022-11-27T20:21:27.998Z,10.13
2022-11-27T20:23:57.174Z,11.48
2022-11-27T20:26:41.323Z,10.25
2022-11-27T20:29:11.880Z,12.32
2022-11-27T20:31:45.286Z,13.85
2022-11-27T20:34:20.721Z,13.07
2022-11-27T20:36:52.681Z,11.75
2022-11-27T20:39:27.716Z,10.65
2022-11-27T20:41:58.452Z,12.20
2022-11-27T20:44:31.031Z,10.90
2022-11-27T20:47:04.224Z,10.82
2022-11-27T20:49:35.974Z,12.05
2022-11-27T20:52:11.825Z,12.50
2022-11-27T20:54:41.126Z,11.75
2022-11-27T20:57:15.464Z,11.35
2022-11-27T20:59:47.505Z,11.70
2022-11-27T21:02:17.008Z,10.50
2022-11-27T21:04:53.697Z,10.32
2022-11-27T21:07:25.428Z,10.88
2022-11-27T21:10:01.719Z,11.30
2022-11-27T21:12:33.452Z,10.80
2022-11-27T21:15:02.837Z,11.93
2022-11-27T21:17:32.408Z,10.98
2022-11-27T21:20:07.481Z,11.13
2022-11-27T21:22:36.192Z,10.23
2022-11-27T21:25:04.964Z,10.30
2022-11-27T21:27:37.459Z,10.70
2022-11-27T21:30:13.485Z,10.48
2022-11-27T21:32:51.352Z,10.60
2022-11-27T21:35:24.649Z,11.10
2022-11-27T21:37:59.433Z,11.07
2022-11-27T21:40:28.113Z,10.20
2022-11-27T21:43:01.313Z,10.95
2022-11-27T21:45:30.337Z,10.77
2022-11-27T21:47:59.368Z,10.23
2022-11-27T21:50:32.687Z,10.35
2022-11-27T21:53:07.516Z,10.55
2022-11-27T21:55:40.302Z,10.57
2022-11-27T21:58:13.772Z,11.63
2022-11-27T22:00:43.232Z,11.55
2022-11-27T22:03:12.164Z,11.25
2022-11-27T22:05:44.052Z,11.05
2022-11-27T22:08:12.607Z,10.95
2022-11-27T22:10:41.867Z,10.95
2022-11-27T22:13:11.912Z,10.70
2022-11-27T22:15:49.945Z,11.75
2022-11-27T22:18:20.177Z,10.25
2022-11-27T22:20:49.267Z,12.30
2022-11-27T22:23:17.950Z,12.23
2022-11-27T22:25:49.998Z,10.73
2022-11-27T22:28:21.055Z,10.60
2022-11-27T22:30:49.572Z,11.18
2022-11-27T22:33:20.146Z,10.70
2022-11-27T22:35:51.848Z,11.73
2022-11-27T22:38:29.721Z,11.93
2022-11-27T22:41:02.715Z,10.73
2022-11-27T22:43:35.088Z,11.73
2022-11-27T22:46:09.650Z,11.32
2022-11-27T22:48:40.034Z,11.98
2022-11-27T22:51:15.472Z,11.48
2022-11-27T22:53:45.808Z,11.15
2022-11-27T22:56:15.516Z,12.15
2022-11-27T22:58:46.125Z,12.68
2022-11-27T23:01:23.942Z,11.52
2022-11-27T23:03:54.844Z,12.30
2022-11-27T23:06:25.000Z,11.68
2022-11-27T23:08:54.496Z,11.38
2022-11-27T23:11:26.048Z,11.35
2022-11-27T23:13:59.249Z,12.52
2022-11-27T23:16:28.001Z,11.80
2022-11-27T23:18:56.824Z,10.93
2022-11-27T23:21:28.615Z,12.30
2022-11-27T23:23:58.086Z,11.43
2022-11-27T23:26:33.330Z,12.43
2022-11-27T23:29:09.382Z,12.20
2022-11-27T23:31:45.936Z,11.40
2022-11-27T23:34:17.975Z,10.98
2022-11-27T23:37:00.112Z,10.70
2022-11-27T23:39:32.794Z,11.70
2022-11-27T23:42:01.700Z,12.77
2022-11-27T23:44:44.410Z,12.25
2022-11-27T23:47:21.520Z,12.00
2022-11-27T23:49:50.198Z,10.70
2022-11-27T23:52:19.371Z,11.50
2022-11-27T23:54:48.458Z,11.80
2022-11-27T23:57:19.169Z,11.23
2022-11-27T23:59:49.460Z,12.18
